Time;durP1;ratioP1;P1;durP2;ratioP2;P2;SDS_P1;SDS_P2;PMS_P1;PMS_P2;Temp;Humidity;BMP_temperature;BMP_pressure;BME280_temperature;BME280_humidity;BME280_pressure;Samples;Min_cycle;Max_cycle;Signal;HPM_P1;HPM_P2
2021/12/02 00:00:10;;;;;;;10.55;2.17;;;3.80;99.90;;;;;;4918535;29;20114;-53
2021/12/02 00:02:37;;;;;;;7.53;2.13;;;3.80;99.90;;;;;;4918064;29;20074;-54
2021/12/02 00:05:04;;;;;;;10.38;1.80;;;3.70;99.90;;;;;;4898535;29;20051;-54
2021/12/02 00:07:30;;;;;;;10.52;2.10;;;3.70;99.90;;;;;;4890307;29;20066;-53
2021/12/02 00:09:56;;;;;;;6.82;1.60;;;3.70;99.90;;;;;;4901323;29;20502;-53
2021/12/02 00:12:22;;;;;;;9.18;1.58;;;3.60;99.90;;;;;;4915466;29;20048;-53
2021/12/02 00:14:50;;;;;;;8.60;1.67;;;3.60;99.90;;;;;;4919782;29;20054;-51
2021/12/02 00:22:29;;;;;;;9.63;1.58;;;3.40;99.90;;;;;;4919106;29;20052;-53
2021/12/02 00:25:03;;;;;;;6.75;1.63;;;3.40;99.90;;;;;;4912347;29;20182;-54
2021/12/02 00:27:30;;;;;;;8.75;1.85;;;3.40;99.90;;;;;;4920235;29;20581;-52
2021/12/02 00:29:58;;;;;;;7.88;1.58;;;3.40;99.90;;;;;;4899864;29;20051;-53
2021/12/02 00:32:29;;;;;;;6.65;1.52;;;3.40;99.90;;;;;;4896803;29;20051;-52
2021/12/02 00:34:57;;;;;;;8.77;1.67;;;3.30;99.90;;;;;;4900617;29;20054;-52
2021/12/02 00:37:24;;;;;;;10.13;1.55;;;3.30;99.90;;;;;;4889372;29;20055;-52
2021/12/02 00:39:53;;;;;;;10.63;1.65;;;3.30;99.90;;;;;;4924865;29;20076;-54
2021/12/02 00:42:19;;;;;;;7.45;1.70;;;3.30;99.90;;;;;;4920259;29;20597;-54
2021/12/02 00:44:46;;;;;;;8.30;1.70;;;3.30;99.90;;;;;;4917491;29;20047;-53
2021/12/02 00:47:13;;;;;;;8.10;1.92;;;3.30;99.90;;;;;;4916671;29;20052;-53
2021/12/02 00:49:39;;;;;;;6.28;1.33;;;3.30;99.90;;;;;;4919833;29;20134;-54
2021/12/02 00:52:08;;;;;;;11.15;1.67;;;3.20;99.90;;;;;;4919010;29;20051;-52
2021/12/02 00:54:40;;;;;;;13.25;2.08;;;3.20;99.90;;;;;;4915509;29;20495;-53
2021/12/02 00:57:08;;;;;;;4.57;1.63;;;3.20;99.90;;;;;;4916127;29;20693;-54
2021/12/02 00:59:36;;;;;;;8.05;1.25;;;3.20;99.90;;;;;;4901405;29;20044;-53
2021/12/02 01:02:02;;;;;;;7.20;1.40;;;3.20;99.90;;;;;;4917394;29;20051;-56
2021/12/02 01:04:28;;;;;;;4.32;1.65;;;3.10;99.90;;;;;;4915818;29;20051;-54
2021/12/02 01:06:54;;;;;;;9.80;1.40;;;3.10;99.90;;;;;;4918661;29;20039;-51
2021/12/02 01:09:21;;;;;;;5.63;1.27;;;3.10;99.90;;;;;;4899930;29;20047;-56
2021/12/02 01:11:47;;;;;;;6.07;1.00;;;3.10;99.90;;;;;;4918358;29;20068;-55
2021/12/02 01:14:13;;;;;;;5.38;1.00;;;3.20;99.90;;;;;;4897506;29;20079;-52
2021/12/02 01:16:39;;;;;;;4.22;1.40;;;3.20;99.90;;;;;;4916820;29;20052;-53
2021/12/02 01:19:06;;;;;;;6.75;1.20;;;3.30;99.90;;;;;;4917342;29;20032;-51
2021/12/02 01:21:36;;;;;;;7.72;1.20;;;3.30;99.90;;;;;;4899760;29;20046;-55
2021/12/02 01:24:04;;;;;;;8.32;1.10;;;3.40;99.90;;;;;;4919153;29;20126;-54
2021/12/02 01:26:32;;;;;;;6.15;1.10;;;3.50;99.90;;;;;;4917062;29;20074;-53
2021/12/02 01:28:58;;;;;;;6.68;1.10;;;3.50;99.90;;;;;;4922572;29;20102;-51
2021/12/02 01:31:31;;;;;;;7.47;1.20;;;3.50;99.90;;;;;;4921282;29;20039;-54
2021/12/02 01:34:01;;;;;;;7.30;0.77;;;3.50;99.90;;;;;;4919030;29;20059;-52
2021/12/02 01:36:33;;;;;;;6.57;1.05;;;3.50;99.90;;;;;;4901406;29;20094;-52
2021/12/02 01:38:59;;;;;;;9.00;1.45;;;3.40;99.90;;;;;;4921504;29;20114;-51
2021/12/02 01:41:25;;;;;;;5.82;1.45;;;3.40;99.90;;;;;;4919728;29;20044;-52
2021/12/02 01:43:54;;;;;;;9.88;1.33;;;3.40;99.90;;;;;;4898339;29;20052;-52
2021/12/02 01:46:25;;;;;;;6.78;1.50;;;3.40;99.90;;;;;;4888753;29;20091;-52
2021/12/02 01:49:06;;;;;;;7.60;1.20;;;3.40;99.90;;;;;;4923440;29;20075;-52
2021/12/02 01:51:47;;;;;;;6.45;1.42;;;3.40;99.90;;;;;;4920310;29;20051;-54
2021/12/02 01:54:19;;;;;;;7.13;1.40;;;3.40;99.90;;;;;;4919198;29;20550;-53
2021/12/02 01:56:51;;;;;;;6.18;1.40;;;3.40;99.90;;;;;;4900657;29;20055;-54
2021/12/02 01:59:25;;;;;;;12.32;1.55;;;3.40;99.90;;;;;;4899032;29;20043;-54
2021/12/02 02:01:55;;;;;;;9.57;1.40;;;3.40;99.90;;;;;;4920964;29;20469;-53
2021/12/02 02:04:23;;;;;;;6.10;1.20;;;3.30;99.90;;;;;;4918942;29;20039;-52
2021/12/02 02:07:00;;;;;;;6.13;1.10;;;3.30;99.90;;;;;;4919417;29;20050;-54
2021/12/02 02:09:28;;;;;;;8.38;1.50;;;3.30;99.90;;;;;;4921081;29;20047;-55
2021/12/02 02:11:55;;;;;;;6.57;1.42;;;3.20;99.90;;;;;;4914369;29;20546;-53
2021/12/02 02:14:24;;;;;;;5.53;1.10;;;3.20;99.90;;;;;;4917256;29;20048;-54
2021/12/02 02:16:50;;;;;;;6.60;1.10;;;3.20;99.90;;;;;;4926850;29;20039;-54
2021/12/02 02:19:17;;;;;;;9.80;1.63;;;3.10;99.90;;;;;;4928552;29;20075;-52
2021/12/02 02:21:43;;;;;;;11.90;1.38;;;3.20;99.90;;;;;;4919623;29;20048;-54
2021/12/02 02:24:17;;;;;;;7.28;1.30;;;3.20;99.90;;;;;;4920040;29;20102;-51
2021/12/02 02:26:44;;;;;;;9.50;1.50;;;3.10;99.90;;;;;;4918485;29;20094;-52
2021/12/02 02:29:12;;;;;;;5.85;1.20;;;3.10;99.90;;;;;;4917387;29;20051;-54
2021/12/02 02:31:41;;;;;;;6.10;1.13;;;3.10;99.90;;;;;;4921059;29;20079;-53
2021/12/02 02:34:08;;;;;;;7.05;1.30;;;3.10;99.90;;;;;;4898113;29;21531;-52
2021/12/02 02:36:37;;;;;;;7.70;1.52;;;3.10;99.90;;;;;;4890473;29;20039;-51
2021/12/02 02:39:04;;;;;;;9.68;1.10;;;3.10;99.90;;;;;;4903548;29;20285;-51
2021/12/02 02:41:35;;;;;;;9.25;1.50;;;3.10;99.90;;;;;;4924736;29;20143;-54
2021/12/02 02:44:03;;;;;;;6.47;1.33;;;3.10;99.90;;;;;;4901972;29;20109;-53
2021/12/02 02:46:34;;;;;;;4.22;1.20;;;3.10;99.90;;;;;;4921117;29;20161;-56
2021/12/02 02:49:02;;;;;;;6.57;1.00;;;3.10;99.90;;;;;;4931994;29;20130;-51
2021/12/02 02:51:31;;;;;;;6.90;1.42;;;3.20;99.90;;;;;;4917951;29;20130;-52
2021/12/02 02:54:02;;;;;;;5.00;0.95;;;3.10;99.90;;;;;;4913501;29;20324;-51
2021/12/02 02:56:30;;;;;;;8.25;1.25;;;3.20;99.90;;;;;;4920582;28;20071;-52
2021/12/02 02:59:12;;;;;;;6.63;1.25;;;3.20;99.90;;;;;;4919745;29;20044;-53
2021/12/02 03:07:12;;;;;;;2.67;0.88;;;3.20;99.90;;;;;;4917620;29;20099;-54
2021/12/02 03:10:10;;;;;;;3.67;0.77;;;3.20;99.90;;;;;;4921492;29;20048;-54
2021/12/02 03:12:37;;;;;;;1.95;0.50;;;3.20;99.90;;;;;;4916878;29;20047;-54
2021/12/02 03:17:31;;;;;;;1.48;0.70;;;3.10;99.90;;;;;;4925332;29;20538;-53
2021/12/02 03:19:58;;;;;;;2.63;0.60;;;3.00;99.90;;;;;;4924315;29;20071;-54
2021/12/02 03:22:24;;;;;;;2.47;0.80;;;3.00;99.90;;;;;;4917276;29;20052;-55
2021/12/02 03:24:50;;;;;;;1.60;0.55;;;2.90;99.90;;;;;;4914666;29;20066;-52
2021/12/02 03:27:16;;;;;;;1.95;0.60;;;2.80;99.90;;;;;;4918410;28;20056;-53
2021/12/02 03:29:42;;;;;;;2.90;0.52;;;2.70;99.90;;;;;;4913884;29;20507;-53
2021/12/02 03:32:09;;;;;;;3.15;0.68;;;2.70;99.90;;;;;;4920571;29;20035;-53
2021/12/02 03:34:36;;;;;;;1.63;0.50;;;2.60;99.90;;;;;;4916501;29;20094;-52
2021/12/02 03:37:03;;;;;;;1.45;0.60;;;2.50;99.90;;;;;;4920476;28;20589;-52
2021/12/02 03:39:29;;;;;;;3.30;0.65;;;2.50;99.90;;;;;;4915722;29;20071;-53
2021/12/02 03:41:55;;;;;;;0.57;0.57;;;2.40;99.90;;;;;;4916483;29;20620;-53
2021/12/02 03:44:22;;;;;;;2.92;0.68;;;2.40;99.90;;;;;;4914640;29;20047;-54
2021/12/02 03:46:49;;;;;;;5.00;0.80;;;2.30;99.90;;;;;;4921814;29;20052;-52
2021/12/02 03:49:15;;;;;;;1.38;0.40;;;2.30;99.90;;;;;;4921257;29;20059;-52
2021/12/02 03:51:41;;;;;;;0.73;0.40;;;2.30;99.90;;;;;;4901361;29;20051;-53
2021/12/02 03:54:07;;;;;;;1.73;0.50;;;2.20;99.90;;;;;;4915639;29;20044;-53
2021/12/02 03:56:33;;;;;;;1.10;0.73;;;2.20;99.90;;;;;;4918901;29;20044;-52
2021/12/02 03:58:59;;;;;;;1.30;0.60;;;2.20;99.90;;;;;;4901758;29;20051;-54
2021/12/02 04:01:25;;;;;;;3.42;0.80;;;2.10;99.90;;;;;;4901212;29;20058;-53
2021/12/02 04:03:51;;;;;;;1.95;0.55;;;2.10;99.90;;;;;;4918230;29;20051;-54
2021/12/02 04:06:18;;;;;;;2.22;0.60;;;2.10;99.90;;;;;;4917614;29;20418;-52
2021/12/02 04:08:48;;;;;;;4.43;0.70;;;2.10;99.90;;;;;;4899729;29;20083;-53
2021/12/02 04:16:22;;;;;;;3.75;0.80;;;1.90;99.90;;;;;;4918241;29;20047;-51
2021/12/02 04:18:48;;;;;;;1.45;0.60;;;1.90;99.90;;;;;;4901700;29;20050;-52
2021/12/02 04:21:14;;;;;;;1.85;0.68;;;1.80;99.90;;;;;;4898769;29;20423;-54
2021/12/02 04:23:40;;;;;;;3.70;0.70;;;1.80;99.90;;;;;;4894982;29;20063;-54
2021/12/02 04:26:06;;;;;;;4.70;0.70;;;1.80;99.90;;;;;;4903792;29;20511;-54
2021/12/02 04:28:32;;;;;;;2.08;0.68;;;1.80;99.90;;;;;;4924467;29;20044;-51
2021/12/02 04:30:58;;;;;;;1.30;0.50;;;1.80;99.90;;;;;;4892722;29;20047;-52
2021/12/02 04:33:24;;;;;;;4.60;0.70;;;1.90;99.90;;;;;;4924511;29;20963;-54
2021/12/02 04:35:52;;;;;;;2.70;0.80;;;1.90;99.90;;;;;;4907544;29;20059;-53
2021/12/02 04:38:19;;;;;;;1.65;0.68;;;2.00;99.90;;;;;;4924782;29;20083;-52
2021/12/02 04:40:45;;;;;;;3.00;0.60;;;2.00;99.90;;;;;;4905375;29;21801;-50
2021/12/02 04:43:11;;;;;;;3.00;0.60;;;2.00;99.90;;;;;;4913328;29;20044;-51
2021/12/02 04:45:37;;;;;;;2.38;0.80;;;2.00;99.90;;;;;;4914544;29;20593;-52
2021/12/02 04:48:03;;;;;;;2.67;0.70;;;2.00;99.90;;;;;;4920625;29;20060;-53
2021/12/02 04:50:29;;;;;;;3.17;0.88;;;2.10;99.90;;;;;;4903329;29;20573;-55
2021/12/02 04:52:54;;;;;;;2.88;0.77;;;2.10;99.90;;;;;;4916438;29;20563;-52
2021/12/02 04:55:21;;;;;;;2.65;0.77;;;2.00;99.90;;;;;;4912667;29;20043;-51
2021/12/02 04:57:48;;;;;;;2.15;0.70;;;2.10;99.90;;;;;;4923136;29;22346;-51
2021/12/02 05:00:15;;;;;;;3.40;0.57;;;2.10;99.90;;;;;;4925465;29;20060;-50
2021/12/02 05:02:42;;;;;;;2.70;0.60;;;2.10;99.90;;;;;;4922231;29;20158;-51
2021/12/02 05:05:09;;;;;;;2.83;1.02;;;2.10;99.90;;;;;;4914319;29;20051;-52
2021/12/02 05:07:35;;;;;;;7.78;0.70;;;2.10;99.90;;;;;;4916345;29;20407;-52
2021/12/02 05:10:05;;;;;;;3.20;1.00;;;2.10;99.90;;;;;;4915986;29;20155;-53
2021/12/02 05:12:31;;;;;;;2.25;0.95;;;2.10;99.90;;;;;;4884612;29;20048;-52
2021/12/02 05:14:57;;;;;;;4.45;1.00;;;2.10;99.90;;;;;;4914034;29;20058;-52
2021/12/02 05:17:23;;;;;;;3.08;0.80;;;2.10;99.90;;;;;;4918062;29;20411;-54
2021/12/02 05:19:49;;;;;;;2.33;0.85;;;2.10;99.90;;;;;;4922216;29;20043;-52
2021/12/02 05:22:15;;;;;;;1.75;0.70;;;2.10;99.90;;;;;;4918527;29;20502;-53
2021/12/02 05:24:41;;;;;;;3.10;0.75;;;2.10;99.90;;;;;;4921300;29;20475;-52
2021/12/02 05:27:07;;;;;;;2.50;0.70;;;2.10;99.90;;;;;;4920675;29;20040;-53
2021/12/02 05:29:33;;;;;;;2.70;0.70;;;2.10;99.90;;;;;;4921246;29;20535;-53
2021/12/02 05:32:00;;;;;;;4.80;0.77;;;2.10;99.90;;;;;;4924356;29;20048;-51
2021/12/02 05:34:26;;;;;;;2.50;0.95;;;2.10;99.90;;;;;;4902783;29;20044;-52
2021/12/02 05:36:53;;;;;;;1.88;0.90;;;2.10;99.90;;;;;;4907479;29;20179;-52
2021/12/02 05:39:19;;;;;;;4.10;0.80;;;2.10;99.90;;;;;;4906448;29;20556;-53
2021/12/02 05:41:45;;;;;;;2.45;1.00;;;2.10;99.90;;;;;;4924888;29;20431;-53
2021/12/02 05:44:11;;;;;;;4.10;0.82;;;2.10;99.90;;;;;;4922644;29;20792;-53
2021/12/02 05:46:38;;;;;;;1.50;0.63;;;2.00;99.90;;;;;;4907489;29;20047;-53
2021/12/02 05:49:04;;;;;;;3.40;0.70;;;2.00;99.90;;;;;;4922548;29;20068;-53
2021/12/02 05:51:30;;;;;;;5.05;0.73;;;2.00;99.90;;;;;;4921903;29;20058;-54
2021/12/02 05:53:55;;;;;;;3.60;0.68;;;2.00;99.90;;;;;;4920054;29;20039;-55
2021/12/02 05:56:21;;;;;;;4.97;0.70;;;2.00;99.90;;;;;;4924034;29;20134;-54
2021/12/02 05:58:47;;;;;;;4.28;0.70;;;2.00;99.90;;;;;;4903488;29;20451;-54
2021/12/02 06:01:13;;;;;;;4.88;0.73;;;2.00;99.90;;;;;;4898243;29;20043;-53
2021/12/02 06:03:40;;;;;;;3.75;1.05;;;2.00;99.90;;;;;;4924778;29;20138;-55
2021/12/02 06:06:06;;;;;;;1.33;0.65;;;2.00;99.90;;;;;;4918386;29;20714;-55
2021/12/02 06:08:32;;;;;;;2.50;0.77;;;2.00;99.90;;;;;;4915421;29;20471;-53
2021/12/02 06:10:58;;;;;;;4.25;0.65;;;2.10;99.90;;;;;;4916799;29;20150;-54
2021/12/02 06:13:25;;;;;;;1.75;0.60;;;2.00;99.90;;;;;;4917270;29;20055;-54
2021/12/02 06:15:52;;;;;;;1.20;0.70;;;2.00;99.90;;;;;;4920438;29;20061;-54
2021/12/02 06:18:17;;;;;;;1.05;0.60;;;1.90;99.90;;;;;;4921938;29;20413;-54
2021/12/02 06:20:47;;;;;;;1.45;0.80;;;2.00;99.90;;;;;;4927785;29;20407;-54
2021/12/02 06:23:13;;;;;;;4.13;0.98;;;2.00;99.90;;;;;;4909980;29;20064;-53
2021/12/02 06:25:44;;;;;;;2.05;0.52;;;2.10;99.90;;;;;;4920888;29;20052;-52
2021/12/02 06:28:10;;;;;;;2.20;0.70;;;2.10;99.90;;;;;;4924172;29;20051;-55
2021/12/02 06:30:36;;;;;;;3.97;0.70;;;2.10;99.90;;;;;;4907538;29;20051;-54
2021/12/02 06:33:02;;;;;;;2.28;0.68;;;2.10;99.90;;;;;;4891894;29;20051;-52
2021/12/02 06:35:28;;;;;;;5.88;0.80;;;2.10;99.90;;;;;;4907063;29;20052;-52
2021/12/02 06:37:54;;;;;;;3.10;0.95;;;2.10;99.90;;;;;;4925656;29;20047;-53
2021/12/02 06:40:20;;;;;;;3.88;0.88;;;2.20;99.90;;;;;;4927100;29;20046;-52
2021/12/02 06:42:45;;;;;;;5.90;0.80;;;2.20;99.90;;;;;;4904956;29;20150;-53
2021/12/02 06:45:12;;;;;;;6.35;1.15;;;2.20;99.90;;;;;;4924679;29;20078;-52
2021/12/02 06:47:40;;;;;;;8.15;0.80;;;2.20;99.90;;;;;;4908062;29;20454;-54
2021/12/02 06:50:14;;;;;;;4.03;0.65;;;2.30;99.90;;;;;;4924274;29;20068;-53
2021/12/02 06:52:40;;;;;;;7.20;1.08;;;2.30;99.90;;;;;;4909678;29;20428;-54
2021/12/02 06:55:06;;;;;;;5.90;1.05;;;2.30;99.90;;;;;;4924779;29;20110;-52
2021/12/02 06:57:32;;;;;;;3.08;0.80;;;2.30;99.90;;;;;;4925368;29;20077;-52
2021/12/02 07:00:03;;;;;;;5.38;0.90;;;2.30;99.90;;;;;;4907492;29;20050;-53
2021/12/02 07:02:30;;;;;;;3.47;0.80;;;2.30;99.90;;;;;;4911883;29;20152;-53
2021/12/02 07:04:58;;;;;;;5.18;0.70;;;2.30;99.90;;;;;;4908100;29;20653;-52
2021/12/02 07:07:24;;;;;;;5.32;0.90;;;2.30;99.90;;;;;;4891510;29;20499;-54
2021/12/02 07:09:50;;;;;;;3.83;0.68;;;2.20;99.90;;;;;;4906798;29;20063;-52
2021/12/02 07:12:18;;;;;;;3.92;0.90;;;2.20;99.90;;;;;;4920446;29;20043;-52
2021/12/02 07:14:47;;;;;;;3.05;0.80;;;2.20;99.90;;;;;;4925250;29;20040;-53
2021/12/02 07:17:13;;;;;;;2.35;0.88;;;2.10;99.90;;;;;;4917751;29;20103;-55
2021/12/02 07:19:40;;;;;;;2.90;0.85;;;2.10;99.90;;;;;;4879116;29;20044;-54
2021/12/02 07:22:06;;;;;;;5.10;1.10;;;2.10;99.90;;;;;;4908092;29;20043;-53
2021/12/02 07:24:32;;;;;;;4.97;0.82;;;2.10;99.90;;;;;;4924505;29;20559;-52
2021/12/02 07:26:58;;;;;;;1.48;0.80;;;2.10;99.90;;;;;;4928000;29;20051;-53
2021/12/02 07:29:24;;;;;;;1.65;0.70;;;2.10;99.90;;;;;;4927574;29;20094;-51
2021/12/02 07:31:50;;;;;;;3.58;0.88;;;2.00;99.90;;;;;;4906865;29;20230;-52
2021/12/02 07:34:20;;;;;;;2.83;0.90;;;1.90;99.90;;;;;;4924611;29;20135;-51
2021/12/02 07:36:47;;;;;;;5.00;0.80;;;1.90;99.90;;;;;;4923424;29;20590;-52
2021/12/02 07:39:13;;;;;;;2.35;0.63;;;1.90;99.90;;;;;;4924179;29;20154;-51
2021/12/02 07:41:42;;;;;;;2.03;0.68;;;1.90;99.90;;;;;;4907375;29;20126;-52
2021/12/02 07:44:10;;;;;;;2.50;0.70;;;1.90;99.90;;;;;;4919472;29;20051;-53
2021/12/02 07:46:36;;;;;;;2.75;0.70;;;1.80;99.90;;;;;;4924207;29;20052;-54
2021/12/02 07:49:02;;;;;;;4.22;0.70;;;1.80;99.90;;;;;;4925401;29;20067;-51
2021/12/02 07:51:30;;;;;;;2.42;0.70;;;1.80;99.90;;;;;;4907304;29;20083;-53
2021/12/02 07:54:01;;;;;;;2.05;0.80;;;1.80;99.90;;;;;;4886078;29;20118;-50
2021/12/02 07:56:31;;;;;;;3.55;1.10;;;1.80;99.90;;;;;;4924494;29;20039;-52
2021/12/02 07:58:56;;;;;;;2.25;0.90;;;1.70;99.90;;;;;;4920887;29;20048;-52
2021/12/02 08:01:22;;;;;;;1.35;0.70;;;1.70;99.90;;;;;;4901671;29;20534;-53
2021/12/02 08:03:48;;;;;;;3.40;1.50;;;1.70;99.90;;;;;;4922041;29;20067;-52
2021/12/02 08:06:15;;;;;;;3.67;1.60;;;1.80;99.90;;;;;;4908480;29;20059;-52
2021/12/02 08:08:42;;;;;;;3.65;1.55;;;1.80;99.90;;;;;;4923531;29;20098;-52
2021/12/02 08:11:09;;;;;;;5.65;2.38;;;1.80;99.90;;;;;;4904325;29;20431;-55
2021/12/02 08:13:35;;;;;;;3.42;2.13;;;1.90;99.90;;;;;;4889342;29;20047;-52
2021/12/02 08:16:04;;;;;;;4.53;2.53;;;1.90;99.90;;;;;;4921814;29;20048;-54
2021/12/02 08:18:30;;;;;;;7.05;3.15;;;1.90;99.90;;;;;;4922116;29;20527;-53
2021/12/02 08:20:56;;;;;;;4.20;2.70;;;2.00;99.90;;;;;;4907043;29;20094;-53
2021/12/02 08:23:22;;;;;;;3.47;3.03;;;2.00;99.90;;;;;;4919807;29;20392;-51
2021/12/02 08:25:48;;;;;;;5.47;3.65;;;2.00;99.90;;;;;;4920101;29;20052;-52
2021/12/02 08:28:14;;;;;;;4.63;3.45;;;2.10;99.90;;;;;;4904035;29;20082;-54
2021/12/02 08:30:41;;;;;;;5.45;3.35;;;2.20;99.90;;;;;;4920993;29;20070;-53
2021/12/02 08:33:09;;;;;;;6.85;3.53;;;2.30;99.90;;;;;;4920118;29;20570;-54
2021/12/02 08:35:35;;;;;;;8.07;3.10;;;2.30;99.90;;;;;;4922132;29;20151;-52
2021/12/02 08:38:08;;;;;;;3.53;3.20;;;2.40;99.90;;;;;;4922332;29;20122;-54
2021/12/02 08:40:36;;;;;;;;;;;2.40;99.90;;;;;;4920209;29;20114;-53
2021/12/02 08:43:05;;;;;;;3.15;2.70;;;2.50;99.90;;;;;;4921348;29;20557;-53
2021/12/02 08:45:31;;;;;;;5.53;2.42;;;2.40;99.90;;;;;;4922173;29;20052;-52
2021/12/02 08:47:58;;;;;;;8.25;2.67;;;2.50;99.90;;;;;;4922466;29;20084;-50
2021/12/02 08:50:24;;;;;;;5.15;2.33;;;2.50;99.90;;;;;;4920389;29;20078;-52
2021/12/02 08:52:52;;;;;;;6.57;2.42;;;2.50;99.90;;;;;;4920478;29;20141;-52
2021/12/02 08:55:20;;;;;;;3.58;2.20;;;2.50;99.90;;;;;;4913500;29;20043;-52
2021/12/02 08:57:47;;;;;;;3.80;2.22;;;2.50;99.90;;;;;;4922012;29;20044;-53
2021/12/02 09:00:17;;;;;;;4.53;2.10;;;2.50;99.90;;;;;;4882520;29;20487;-53
2021/12/02 09:02:43;;;;;;;3.30;1.80;;;2.50;99.90;;;;;;4923510;29;20139;-53
2021/12/02 09:05:09;;;;;;;2.60;1.63;;;2.50;99.90;;;;;;4905643;29;20048;-53
2021/12/02 09:07:35;;;;;;;3.40;2.00;;;2.50;99.90;;;;;;4921618;29;20118;-52
2021/12/02 09:10:02;;;;;;;3.47;2.00;;;2.60;99.90;;;;;;4906124;29;20043;-52
2021/12/02 09:12:28;;;;;;;3.15;1.65;;;2.60;99.90;;;;;;4904002;29;20055;-56
2021/12/02 09:14:54;;;;;;;5.07;1.75;;;2.60;99.90;;;;;;4907029;29;20051;-53
2021/12/02 09:17:20;;;;;;;4.47;1.83;;;2.60;99.90;;;;;;4906285;29;20051;-52
2021/12/02 09:19:46;;;;;;;3.25;1.65;;;2.60;99.90;;;;;;4918694;29;20036;-51
2021/12/02 09:22:11;;;;;;;2.53;1.55;;;2.60;99.90;;;;;;4921876;29;20048;-54
2021/12/02 09:24:39;;;;;;;3.58;1.60;;;2.60;99.90;;;;;;4902110;29;20053;-52
2021/12/02 09:27:06;;;;;;;6.68;1.70;;;2.60;99.90;;;;;;4923795;29;20643;-52
2021/12/02 09:29:32;;;;;;;3.70;1.80;;;2.60;99.90;;;;;;4923807;29;20104;-54
2021/12/02 09:31:58;;;;;;;3.40;1.80;;;2.60;99.90;;;;;;4905426;29;20127;-52
2021/12/02 09:34:26;;;;;;;5.97;1.40;;;2.70;99.90;;;;;;4903723;29;20056;-52
2021/12/02 09:36:52;;;;;;;3.80;1.88;;;2.80;99.90;;;;;;4921826;29;20127;-53
2021/12/02 09:39:19;;;;;;;2.33;1.52;;;3.00;99.90;;;;;;4901661;29;20055;-52
2021/12/02 09:41:46;;;;;;;2.45;1.48;;;3.20;99.90;;;;;;4922063;29;20061;-54
2021/12/02 09:44:13;;;;;;;2.80;1.48;;;3.30;99.90;;;;;;4918401;29;21280;-52
2021/12/02 09:46:40;;;;;;;2.45;1.27;;;3.40;99.90;;;;;;4921864;29;20097;-52
2021/12/02 09:49:08;;;;;;;4.32;1.90;;;3.40;99.90;;;;;;4924717;29;20117;-58
2021/12/02 09:52:00;;;;;;;2.85;1.20;;;3.40;99.90;;;;;;4927090;29;20506;-61
2021/12/02 09:54:32;;;;;;;3.10;1.10;;;3.20;99.90;;;;;;4924304;29;20058;-61
2021/12/02 09:57:02;;;;;;;6.22;1.00;;;3.00;99.90;;;;;;4909175;29;20048;-61
2021/12/02 09:59:34;;;;;;;2.25;1.17;;;2.80;99.90;;;;;;4916805;29;20478;-55
2021/12/02 10:02:07;;;;;;;3.03;0.90;;;2.60;99.90;;;;;;4906913;29;20039;-57
2021/12/02 10:04:39;;;;;;;1.30;0.70;;;2.50;99.90;;;;;;4923685;29;20315;-58
2021/12/02 10:07:20;;;;;;;3.28;0.60;;;2.40;99.90;;;;;;4917631;29;20048;-61
2021/12/02 10:10:15;;;;;;;2.00;0.70;;;2.40;99.90;;;;;;4925349;29;20047;-60
2021/12/02 10:13:30;;;;;;;0.60;0.57;;;2.30;99.90;;;;;;4925005;29;20051;-61
2021/12/02 10:16:19;;;;;;;1.10;0.70;;;2.30;99.90;;;;;;4926789;29;20054;-54
2021/12/02 10:19:31;;;;;;;0.93;0.70;;;2.30;99.90;;;;;;4924209;29;20047;-61
2021/12/02 10:21:45;;;;;;;0.70;0.60;;;2.30;99.90;;;;;;4919515;29;20131;-58
2021/12/02 10:24:30;;;;;;;1.08;0.60;;;2.40;99.90;;;;;;4925122;29;20075;-55
2021/12/02 10:27:03;;;;;;;0.60;0.60;;;2.40;99.90;;;;;;4927294;29;20055;-61
2021/12/02 10:29:34;;;;;;;1.83;0.80;;;2.50;99.90;;;;;;4925022;29;20058;-61
2021/12/02 10:32:17;;;;;;;0.82;0.70;;;2.50;99.90;;;;;;4928597;29;20537;-60
2021/12/02 10:34:57;;;;;;;2.10;0.70;;;2.50;99.90;;;;;;4928344;29;20048;-58
2021/12/02 10:37:31;;;;;;;0.60;0.52;;;2.50;99.90;;;;;;4924731;29;20048;-60
2021/12/02 10:40:08;;;;;;;4.15;0.80;;;2.60;99.90;;;;;;4924376;29;20035;-61
2021/12/02 10:42:42;;;;;;;0.68;0.57;;;2.50;99.90;;;;;;4907574;29;20044;-61
2021/12/02 10:45:18;;;;;;;1.75;0.82;;;2.50;99.90;;;;;;4926713;29;20372;-61
2021/12/02 10:47:52;;;;;;;3.38;0.90;;;2.50;99.90;;;;;;4906737;29;20060;-57
2021/12/02 10:50:19;;;;;;;2.65;0.80;;;2.50;99.90;;;;;;4921363;29;20058;-59
2021/12/02 10:52:46;;;;;;;1.20;0.90;;;2.40;99.90;;;;;;4909883;29;20047;-60
2021/12/02 10:55:15;;;;;;;2.95;0.85;;;2.40;99.90;;;;;;4923996;29;20606;-60
2021/12/02 10:57:49;;;;;;;1.77;0.77;;;2.40;99.90;;;;;;4894862;29;20050;-58
2021/12/02 11:00:18;;;;;;;3.58;0.90;;;2.40;99.90;;;;;;4910696;29;20052;-59
2021/12/02 11:02:48;;;;;;;2.40;0.80;;;2.40;99.90;;;;;;4929542;29;20419;-61
2021/12/02 11:05:24;;;;;;;3.38;0.93;;;2.30;99.90;;;;;;4911728;29;20051;-61
2021/12/02 11:08:04;;;;;;;2.05;0.90;;;2.40;99.90;;;;;;4918537;29;20082;-61
2021/12/02 11:10:41;;;;;;;2.17;0.80;;;2.40;99.90;;;;;;4910020;29;20051;-57
2021/12/02 11:13:08;;;;;;;3.13;0.80;;;2.30;99.90;;;;;;4923474;29;20599;-61
2021/12/02 11:15:37;;;;;;;3.45;1.23;;;2.30;99.90;;;;;;4918587;29;20051;-60
2021/12/02 11:18:11;;;;;;;2.45;0.60;;;2.30;99.90;;;;;;4924128;29;20395;-61
2021/12/02 11:21:00;;;;;;;2.63;0.68;;;2.30;99.90;;;;;;4925768;29;20044;-61
2021/12/02 11:23:42;;;;;;;1.55;0.60;;;2.30;99.90;;;;;;4924855;29;20600;-61
2021/12/02 11:26:11;;;;;;;1.83;0.73;;;2.40;99.90;;;;;;4924927;29;20052;-58
2021/12/02 11:28:47;;;;;;;0.85;0.80;;;2.40;99.90;;;;;;4922761;29;20063;-61
2021/12/02 11:31:19;;;;;;;1.38;0.80;;;2.40;99.90;;;;;;4924705;29;20050;-61
2021/12/02 11:33:47;;;;;;;3.15;0.90;;;2.40;99.90;;;;;;4924848;29;20079;-57
2021/12/02 11:36:25;;;;;;;1.40;0.73;;;2.50;99.90;;;;;;4905259;29;20047;-61
2021/12/02 11:38:53;;;;;;;2.13;0.90;;;2.40;99.90;;;;;;4928985;29;20044;-59
2021/12/02 11:41:19;;;;;;;2.60;1.00;;;2.40;99.90;;;;;;4927326;29;20784;-61
2021/12/02 11:43:45;;;;;;;1.30;0.80;;;2.40;99.90;;;;;;4928710;29;20413;-60
2021/12/02 11:46:11;;;;;;;3.03;1.00;;;2.40;99.90;;;;;;4926309;29;20051;-60
2021/12/02 11:48:41;;;;;;;2.75;1.05;;;2.40;99.90;;;;;;4908574;29;20162;-57
2021/12/02 11:51:14;;;;;;;2.63;0.98;;;2.40;99.90;;;;;;4927469;29;20043;-61
2021/12/02 11:53:40;;;;;;;3.53;1.10;;;2.40;99.90;;;;;;4928795;29;20611;-60
2021/12/02 11:56:13;;;;;;;3.22;1.05;;;2.40;99.90;;;;;;4922367;29;20051;-60
2021/12/02 11:58:40;;;;;;;1.60;0.80;;;2.40;99.90;;;;;;4917943;29;20119;-60
2021/12/02 12:01:08;;;;;;;3.50;0.75;;;2.40;99.90;;;;;;4939111;28;20495;-60
2021/12/02 12:04:08;;;;;;;1.88;0.70;;;2.50;99.90;;;;;;4921712;29;20510;-60
2021/12/02 12:06:36;;;;;;;2.15;0.80;;;2.60;99.90;;;;;;4941186;28;20537;-58
2021/12/02 12:09:11;;;;;;;1.50;0.70;;;2.60;99.90;;;;;;4923265;29;20036;-59
2021/12/02 12:11:43;;;;;;;4.32;1.08;;;2.70;99.90;;;;;;4924169;29;20148;-60
2021/12/02 12:14:12;;;;;;;2.27;0.80;;;2.80;99.90;;;;;;4922839;29;20052;-59
2021/12/02 12:17:02;;;;;;;1.88;0.60;;;2.90;99.90;;;;;;4905164;29;22248;-60
2021/12/02 12:19:32;;;;;;;2.95;0.82;;;2.90;99.90;;;;;;4925177;29;20047;-60
2021/12/02 12:22:07;;;;;;;3.25;1.00;;;2.90;99.90;;;;;;4923524;29;20055;-60
2021/12/02 12:24:49;;;;;;;0.88;0.60;;;2.80;99.90;;;;;;4920526;29;20059;-60
2021/12/02 12:27:18;;;;;;;1.00;0.63;;;2.80;99.90;;;;;;4923010;29;20509;-60
2021/12/02 12:29:47;;;;;;;0.70;0.70;;;2.70;99.90;;;;;;4922042;29;20050;-60
2021/12/02 12:32:36;;;;;;;1.67;0.50;;;2.60;99.90;;;;;;4924038;29;20059;-60
2021/12/02 12:37:53;;;;;;;0.60;0.60;;;2.40;99.90;;;;;;4901964;29;20043;-60
2021/12/02 12:40:25;;;;;;;0.77;0.73;;;2.30;99.90;;;;;;4922702;29;20526;-60
2021/12/02 12:43:11;;;;;;;;;;;2.30;99.90;;;;;;4925031;29;20044;-59
2021/12/02 12:45:41;;;;;;;0.68;0.60;;;2.30;99.90;;;;;;4920422;29;20357;-60
2021/12/02 12:48:10;;;;;;;0.57;0.57;;;2.50;99.90;;;;;;4925026;29;20106;-60
2021/12/02 12:50:44;;;;;;;0.90;0.63;;;2.60;99.90;;;;;;4924392;29;20449;-56
2021/12/02 12:53:19;;;;;;;1.45;0.63;;;2.80;99.90;;;;;;4901313;29;20071;-53
2021/12/02 12:55:49;;;;;;;0.60;0.60;;;3.00;99.90;;;;;;4923364;29;20044;-59
2021/12/02 12:58:28;;;;;;;1.65;0.50;;;3.20;99.90;;;;;;4907940;29;20118;-55
2021/12/02 13:01:00;;;;;;;0.40;0.40;;;3.20;99.90;;;;;;4923675;29;20039;-59
2021/12/02 13:03:33;;;;;;;1.88;0.70;;;3.50;99.90;;;;;;4924469;29;20140;-58
2021/12/02 13:06:18;;;;;;;0.90;0.68;;;3.60;99.90;;;;;;4923096;29;20558;-60
2021/12/02 13:08:50;;;;;;;0.50;0.50;;;3.70;99.90;;;;;;4921758;29;20047;-60
2021/12/02 13:11:29;;;;;;;1.55;0.60;;;3.90;99.90;;;;;;4923058;29;20055;-60
2021/12/02 13:13:56;;;;;;;0.95;0.77;;;4.00;99.90;;;;;;4917870;29;20493;-55
2021/12/02 13:16:22;;;;;;;0.50;0.50;;;4.10;99.90;;;;;;4896052;29;20159;-55
2021/12/02 13:19:00;;;;;;;0.57;0.57;;;4.20;99.90;;;;;;4923272;29;20047;-58
2021/12/02 13:21:32;;;;;;;0.73;0.73;;;4.20;99.90;;;;;;4914556;29;20134;-60
2021/12/02 13:24:08;;;;;;;0.57;0.57;;;4.30;99.90;;;;;;4920274;29;20499;-57
2021/12/02 13:26:38;;;;;;;2.47;0.55;;;4.30;99.90;;;;;;4923212;29;20048;-57
2021/12/02 13:29:06;;;;;;;1.10;0.60;;;4.40;99.90;;;;;;4923994;29;20031;-60